Hauptseite
METAR-TAF:

METAR-TAF

Flughäfen :

Flughafen Genf

Genf, Schweiz

Breite: 46-15N, Länge: 006-08E, Höhe: 420 m

Beobachtung

Neuester Wetterbericht von vor 35 Minuten, um 03:50 UTC
Wind 2 kt aus Nordwest
Temperatur 12°C
Luftfeuchtigkeit 76%
Luftdruck 1017 hPa
Sichtweite 10 km oder mehr
keine Wolken unter 1500 m und keine Kumulonimbus oder Gewitterwolken

METAR: LSGG 160350Z 31002KT CAVOK 12/08 Q1017 NOSIG

Zeit: 06:25 (04:25 UTC)

Prognose

Neuester Wetterbericht von vor 2 Stunden und 0 Minuten, um 02:25 UTC
Gültige Prognose vom 16 um 03 UTC bis 17 um 09 UTC
Wind 3 kt aus unterschiedlichen Richtungen
Sichtweite 10 km oder mehr
keine Wolken unter 1500 m und keine Kumulonimbus oder Gewitterwolken

TAF: LSGG 160225Z 1603/1709 VRB03KT CAVOK TX23/1615Z TN11/1606Z TN08/1706Z

Wetterbeobachtungen und Prognosen von mehr als 4000 Flughäfen (METAR und TAF Bericht).

Die verfügbaren Stationen werden durch gelbe und rote Markierungen auf der Karte dargestellt.

Führen Sie die Maus auf sie, um den Namen der Station zu sehen.

Darauf klicken, um die Beobachtung von Wetterbeobachtungen und Prognosen zu sehen.

Um die Karte zu ändern : klicken Sie auf den grünen Tasten mit einem schwarzen Kreuz Zum Vergrößern, auf den grünen Button mit einem Gedankenstrich zu verkleinern, oder auf die grünen Pfeile für benachbarte Karten.


METAR-TAF: